Time;durP1;ratioP1;P1;durP2;ratioP2;P2;SDS_P1;SDS_P2;PMS_P1;PMS_P2;Temp;Humidity;BMP_temperature;BMP_pressure;BME280_temperature;BME280_humidity;BME280_pressure;Samples;Min_cycle;Max_cycle;Signal;HPM_P1;HPM_P2
2022/10/07 00:00:13;;;;;;;6.63;5.20;;;4.50;99.90;;;;;;8378138;28;20216;-68
2022/10/07 00:04:14;;;;;;;7.23;5.43;;;4.50;99.90;;;;;;8379721;28;20230;-68
2022/10/07 00:08:15;;;;;;;12.30;6.87;;;4.50;99.90;;;;;;8377574;28;20185;-68
2022/10/07 00:12:16;;;;;;;10.93;8.77;;;4.40;99.90;;;;;;8378419;28;20189;-68
2022/10/07 00:16:26;;;;;;;12.50;8.10;;;4.40;99.90;;;;;;8372889;28;20217;-68
2022/10/07 00:20:27;;;;;;;15.23;10.07;;;4.30;99.90;;;;;;8381841;28;20235;-68
2022/10/07 00:24:28;;;;;;;22.50;13.27;;;4.30;99.90;;;;;;8372236;28;20216;-68
2022/10/07 00:28:29;;;;;;;24.33;14.70;;;4.20;99.90;;;;;;8377421;28;20185;-68
2022/10/07 00:32:30;;;;;;;21.20;13.10;;;4.20;99.90;;;;;;8376481;28;20185;-68
2022/10/07 00:36:34;;;;;;;17.13;10.93;;;4.20;99.90;;;;;;8382823;28;20191;-67
2022/10/07 00:40:35;;;;;;;14.60;9.83;;;4.10;99.90;;;;;;8385806;28;20192;-68
2022/10/07 00:44:43;;;;;;;15.57;8.50;;;4.00;99.90;;;;;;8382127;28;20189;-68
2022/10/07 00:48:45;;;;;;;11.53;7.47;;;3.80;99.90;;;;;;8382151;28;20185;-67
2022/10/07 00:52:53;;;;;;;12.67;8.47;;;3.70;99.90;;;;;;8383978;28;20297;-68
2022/10/07 00:56:53;;;;;;;12.90;7.77;;;3.60;99.90;;;;;;8384761;28;20211;-68
2022/10/07 01:00:54;;;;;;;14.37;8.70;;;3.60;99.90;;;;;;8385132;28;20199;-67
2022/10/07 01:04:58;;;;;;;12.43;7.83;;;3.60;99.90;;;;;;8383703;28;20238;-68
2022/10/07 01:08:59;;;;;;;15.23;9.70;;;3.50;99.90;;;;;;8384300;28;20188;-68
2022/10/07 01:13:38;;;;;;;11.97;9.17;;;3.50;99.90;;;;;;8385825;28;20294;-68
2022/10/07 01:17:46;;;;;;;12.43;8.07;;;3.40;99.90;;;;;;8329453;28;20190;-68
2022/10/07 01:22:31;;;;;;;13.50;8.20;;;3.30;99.90;;;;;;8351019;28;20185;-68
2022/10/07 01:27:00;;;;;;;11.67;7.47;;;3.30;99.90;;;;;;8347348;28;20257;-67
2022/10/07 01:31:04;;;;;;;13.47;7.70;;;3.30;99.90;;;;;;8357583;28;20237;-67
2022/10/07 01:35:11;;;;;;;12.40;7.50;;;3.20;99.90;;;;;;8381552;28;20239;-67
2022/10/07 01:39:14;;;;;;;11.97;6.80;;;3.10;99.90;;;;;;8386485;28;20186;-71
2022/10/07 01:43:17;;;;;;;9.87;6.80;;;3.10;99.90;;;;;;8379244;28;20189;-68
2022/10/07 01:47:18;;;;;;;9.50;7.10;;;3.10;99.90;;;;;;8383049;28;20189;-67
2022/10/07 01:51:26;;;;;;;11.40;6.90;;;3.10;99.90;;;;;;8382019;28;20185;-67
2022/10/07 01:55:45;;;;;;;10.10;6.27;;;3.00;99.90;;;;;;8384082;28;20226;-67
2022/10/07 02:00:06;;;;;;;9.63;6.13;;;3.00;99.90;;;;;;8382245;28;20195;-68
2022/10/07 02:04:15;;;;;;;13.63;7.80;;;2.90;99.90;;;;;;8382570;28;20193;-67
2022/10/07 02:08:49;;;;;;;14.93;7.03;;;2.90;99.90;;;;;;8383077;28;20182;-68
2022/10/07 02:13:04;;;;;;;11.37;6.77;;;2.80;99.90;;;;;;8375783;28;20220;-68
2022/10/07 02:17:13;;;;;;;11.13;6.63;;;2.80;99.90;;;;;;8381567;28;20235;-68
2022/10/07 02:21:17;;;;;;;11.93;7.30;;;2.70;99.90;;;;;;8382205;28;20184;-67
2022/10/07 02:25:21;;;;;;;9.53;6.50;;;2.70;99.90;;;;;;8378904;28;20193;-68
2022/10/07 02:29:24;;;;;;;8.90;6.10;;;2.60;99.90;;;;;;8374445;28;20181;-67
2022/10/07 02:33:28;;;;;;;9.00;5.77;;;2.50;99.90;;;;;;8378134;28;20215;-68
2022/10/07 02:37:34;;;;;;;11.10;5.87;;;2.40;99.90;;;;;;8381453;28;20177;-67
2022/10/07 02:41:52;;;;;;;12.07;7.03;;;2.30;99.90;;;;;;8376644;28;20191;-68
2022/10/07 02:46:01;;;;;;;10.90;6.23;;;2.20;99.90;;;;;;8381743;28;20219;-67
2022/10/07 02:50:06;;;;;;;12.03;7.10;;;2.20;99.90;;;;;;8394965;28;20220;-68
2022/10/07 02:54:07;;;;;;;8.83;5.27;;;2.10;99.90;;;;;;8379908;28;20207;-68
2022/10/07 02:58:11;;;;;;;11.73;7.23;;;2.10;99.90;;;;;;8382221;28;20209;-67
2022/10/07 03:02:22;;;;;;;14.67;7.00;;;2.00;99.90;;;;;;8381276;28;20185;-73
2022/10/07 03:06:24;;;;;;;8.33;5.20;;;2.00;99.90;;;;;;8395451;28;20189;-67
2022/10/07 03:10:30;;;;;;;8.67;5.00;;;2.00;99.90;;;;;;8381268;28;20188;-67
2022/10/07 03:14:33;;;;;;;7.93;5.23;;;1.90;99.90;;;;;;8382370;28;20269;-67
2022/10/07 03:18:34;;;;;;;8.90;5.57;;;1.80;99.90;;;;;;8382758;28;20185;-67
2022/10/07 03:22:35;;;;;;;9.07;5.93;;;1.80;99.90;;;;;;8379516;28;20189;-67
2022/10/07 03:26:36;;;;;;;8.97;5.53;;;1.70;99.90;;;;;;8378417;28;20252;-67
2022/10/07 03:30:37;;;;;;;8.57;4.90;;;1.60;99.90;;;;;;8381817;28;20208;-68
2022/10/07 03:34:37;;;;;;;9.20;5.90;;;1.50;99.90;;;;;;8378160;28;20243;-67
2022/10/07 03:38:38;;;;;;;9.00;4.83;;;1.50;99.90;;;;;;8376916;28;20246;-67
2022/10/07 03:42:40;;;;;;;9.87;5.70;;;1.50;99.90;;;;;;8379684;28;20189;-67
2022/10/07 03:46:41;;;;;;;8.00;5.20;;;1.40;99.90;;;;;;8379637;28;20201;-67
2022/10/07 03:50:51;;;;;;;15.23;7.13;;;1.30;99.90;;;;;;8377160;28;20189;-67
2022/10/07 03:54:55;;;;;;;11.23;5.77;;;1.30;99.90;;;;;;8380966;28;20209;-67
2022/10/07 03:58:55;;;;;;;10.00;5.47;;;1.40;99.90;;;;;;8378264;28;20209;-67
2022/10/07 04:02:56;;;;;;;11.20;6.30;;;1.30;99.90;;;;;;8379296;28;20277;-67
2022/10/07 04:06:57;;;;;;;9.33;5.90;;;1.20;99.90;;;;;;8378982;28;20187;-68
2022/10/07 04:10:59;;;;;;;10.40;5.57;;;1.20;99.90;;;;;;8382725;28;20192;-67
2022/10/07 04:15:00;;;;;;;11.17;6.07;;;1.20;99.90;;;;;;8384460;28;20350;-67
2022/10/07 04:19:01;;;;;;;13.97;7.30;;;1.20;99.90;;;;;;8378167;28;20187;-67
2022/10/07 04:23:02;;;;;;;12.67;7.13;;;1.10;99.90;;;;;;8381304;28;20189;-67
2022/10/07 04:27:06;;;;;;;11.97;7.00;;;1.00;99.90;;;;;;8376882;28;20177;-67
2022/10/07 04:31:09;;;;;;;12.07;7.40;;;1.00;99.90;;;;;;8378064;28;20196;-67
2022/10/07 04:35:10;;;;;;;11.83;6.93;;;1.00;99.90;;;;;;8378775;28;20241;-67
2022/10/07 04:39:11;;;;;;;16.43;7.93;;;1.00;99.90;;;;;;8372294;28;20177;-67
2022/10/07 04:43:25;;;;;;;10.20;6.00;;;1.10;99.90;;;;;;8379931;28;20247;-67
2022/10/07 04:47:26;;;;;;;9.27;5.70;;;1.00;99.90;;;;;;8377964;28;20200;-67
2022/10/07 04:51:28;;;;;;;10.00;5.53;;;1.00;99.90;;;;;;8372341;28;20185;-67
2022/10/07 04:55:28;;;;;;;9.47;5.00;;;0.90;99.90;;;;;;8373737;28;20236;-67
2022/10/07 04:59:29;;;;;;;7.17;5.27;;;0.80;99.90;;;;;;8372292;28;20494;-67
2022/10/07 05:03:30;;;;;;;9.83;4.63;;;0.80;99.90;;;;;;8374475;28;20197;-67
2022/10/07 05:07:31;;;;;;;8.17;4.77;;;0.80;99.90;;;;;;8375992;28;20253;-67
2022/10/07 05:11:32;;;;;;;7.27;4.57;;;0.80;99.90;;;;;;8375134;28;20196;-67
2022/10/07 05:15:32;;;;;;;5.63;3.73;;;0.90;99.90;;;;;;8377058;28;20214;-67
2022/10/07 05:19:34;;;;;;;6.47;4.30;;;0.90;99.90;;;;;;8380103;28;20189;-66
2022/10/07 05:23:35;;;;;;;6.27;3.60;;;0.90;99.90;;;;;;8377935;28;20213;-67
2022/10/07 05:27:36;;;;;;;4.47;3.20;;;0.90;99.90;;;;;;8378402;28;20185;-68
2022/10/07 05:31:37;;;;;;;4.77;3.43;;;1.00;99.90;;;;;;8378819;28;20238;-67
2022/10/07 05:35:38;;;;;;;4.77;3.10;;;1.10;99.90;;;;;;8379859;28;20216;-67
2022/10/07 05:39:38;;;;;;;4.77;3.00;;;1.10;99.90;;;;;;8379739;28;20189;-67
2022/10/07 05:43:46;;;;;;;4.10;3.00;;;1.20;99.90;;;;;;8379092;28;20185;-67
2022/10/07 05:47:46;;;;;;;3.93;3.03;;;1.30;99.90;;;;;;8377104;28;20184;-67
2022/10/07 05:51:47;;;;;;;6.53;3.97;;;1.30;99.90;;;;;;8382214;28;20185;-67
2022/10/07 05:55:50;;;;;;;15.37;12.27;;;1.40;99.90;;;;;;8379642;28;20308;-67
2022/10/07 05:59:51;;;;;;;17.93;12.03;;;1.60;99.90;;;;;;8381260;28;20217;-68
2022/10/07 06:03:56;;;;;;;13.80;9.20;;;1.80;99.90;;;;;;8382131;28;20205;-68
2022/10/07 06:07:56;;;;;;;11.83;8.50;;;1.90;99.90;;;;;;8379333;28;20181;-67
2022/10/07 06:16:16;;;;;;;14.67;9.83;;;2.20;99.90;;;;;;8381066;28;20216;-67
2022/10/07 06:20:17;;;;;;;13.37;9.70;;;2.30;99.90;;;;;;8381237;28;20185;-67
2022/10/07 06:24:18;;;;;;;21.90;14.03;;;2.40;99.90;;;;;;8381950;28;20283;-67
2022/10/07 06:28:19;;;;;;;24.67;16.13;;;2.60;99.90;;;;;;8386063;28;20185;-67
2022/10/07 06:32:20;;;;;;;23.10;14.83;;;2.70;99.90;;;;;;8377691;28;20185;-69
2022/10/07 06:36:20;;;;;;;19.37;14.03;;;2.90;99.90;;;;;;8372288;28;20235;-67
2022/10/07 06:40:21;;;;;;;29.27;16.63;;;3.10;99.90;;;;;;8375294;28;20186;-68
2022/10/07 06:44:22;;;;;;;49.63;31.47;;;3.20;99.90;;;;;;8380542;28;20192;-68
2022/10/07 06:48:23;;;;;;;49.87;33.57;;;3.40;99.90;;;;;;8377086;28;20227;-67
2022/10/07 06:52:24;;;;;;;47.07;32.13;;;3.60;99.90;;;;;;8377936;28;20195;-68
2022/10/07 06:56:24;;;;;;;48.47;34.13;;;3.80;99.90;;;;;;8375891;28;20212;-68
2022/10/07 07:00:25;;;;;;;40.53;28.30;;;4.10;99.90;;;;;;8380027;28;20209;-68
2022/10/07 07:04:26;;;;;;;43.30;30.00;;;4.30;99.90;;;;;;8380163;28;20324;-68
2022/10/07 07:08:30;;;;;;;51.03;30.50;;;4.60;99.90;;;;;;8378329;28;20186;-68
2022/10/07 07:12:32;;;;;;;41.23;27.27;;;4.80;99.90;;;;;;8381732;28;20188;-68
2022/10/07 07:16:34;;;;;;;57.13;38.97;;;5.10;99.90;;;;;;8378565;28;20216;-68
2022/10/07 07:20:37;;;;;;;42.47;28.07;;;5.50;99.90;;;;;;8372973;28;20190;-68
2022/10/07 07:24:37;;;;;;;40.67;26.23;;;5.70;99.90;;;;;;8398020;28;20222;-68
2022/10/07 07:28:40;;;;;;;41.67;26.63;;;6.10;99.90;;;;;;8377529;28;20201;-68
2022/10/07 07:32:41;;;;;;;41.77;24.17;;;6.30;99.90;;;;;;8376810;28;20189;-69
2022/10/07 07:36:47;;;;;;;36.33;22.10;;;6.60;99.90;;;;;;8378168;28;20205;-68
2022/10/07 07:40:47;;;;;;;26.17;18.10;;;6.90;99.90;;;;;;8376178;28;20256;-67
2022/10/07 07:44:48;;;;;;;22.63;15.47;;;7.10;99.90;;;;;;8377229;28;20280;-68
2022/10/07 07:48:50;;;;;;;21.73;14.63;;;7.40;99.90;;;;;;8374404;28;20227;-68
2022/10/07 07:52:51;;;;;;;24.03;15.90;;;7.70;99.90;;;;;;8377976;28;20184;-70
2022/10/07 07:56:53;;;;;;;24.13;15.00;;;8.00;99.90;;;;;;8376153;28;20266;-68
2022/10/07 08:01:04;;;;;;;22.80;16.43;;;8.30;99.90;;;;;;8379274;28;20221;-68
2022/10/07 08:05:05;;;;;;;19.47;15.27;;;8.70;99.90;;;;;;8379008;28;20216;-67
2022/10/07 08:09:07;;;;;;;18.73;12.60;;;9.10;99.90;;;;;;8376336;28;20193;-69
2022/10/07 08:13:08;;;;;;;30.40;18.67;;;9.50;99.90;;;;;;8378270;28;20213;-68
2022/10/07 08:17:09;;;;;;;42.00;25.13;;;9.80;99.90;;;;;;8376095;28;20190;-68
2022/10/07 08:21:10;;;;;;;19.03;13.53;;;10.10;99.90;;;;;;8375530;28;20224;-68
2022/10/07 08:25:11;;;;;;;15.53;9.97;;;10.50;99.90;;;;;;8372572;28;20196;-69
2022/10/07 08:29:13;;;;;;;14.50;10.03;;;10.80;99.90;;;;;;8374473;28;20278;-68
2022/10/07 08:33:14;;;;;;;12.90;8.37;;;11.10;99.90;;;;;;8375899;28;20222;-69
2022/10/07 08:37:14;;;;;;;15.10;10.30;;;11.40;99.90;;;;;;8378983;28;20185;-70
2022/10/07 08:41:32;;;;;;;9.03;4.80;;;11.70;99.90;;;;;;8376267;28;20329;-68
2022/10/07 08:45:33;;;;;;;15.97;8.80;;;12.00;99.90;;;;;;8375009;28;20287;-68
2022/10/07 08:50:01;;;;;;;8.50;5.30;;;12.40;99.90;;;;;;8374109;28;20218;-69
2022/10/07 08:54:01;;;;;;;3.67;2.20;;;12.70;99.90;;;;;;8382648;28;20236;-69
2022/10/07 08:58:14;;;;;;;4.53;2.20;;;13.00;1.00;;;;;;8380021;28;20219;-68
2022/10/07 09:02:38;;;;;;;4.13;2.00;;;13.20;99.90;;;;;;8385935;28;20197;-69
2022/10/07 09:06:59;;;;;;;6.03;2.13;;;13.60;76.90;;;;;;8377002;28;20197;-69
2022/10/07 09:11:14;;;;;;;3.87;1.90;;;13.90;1.00;;;;;;8383918;28;20248;-69
2022/10/07 09:15:32;;;;;;;4.20;1.73;;;14.20;1.00;;;;;;8380371;28;20232;-69
2022/10/07 09:19:44;;;;;;;4.37;1.63;;;14.40;1.00;;;;;;8382618;28;20368;-70
2022/10/07 09:23:46;;;;;;;4.70;2.13;;;14.60;99.90;;;;;;8380995;28;20193;-69
2022/10/07 09:27:47;;;;;;;5.97;1.73;;;14.80;99.90;;;;;;8380095;28;20254;-69
2022/10/07 09:31:48;;;;;;;6.33;2.00;;;14.90;99.90;;;;;;8379488;28;20185;-68
2022/10/07 09:36:05;;;;;;;4.23;1.83;;;15.10;99.90;;;;;;8381709;28;20324;-69
2022/10/07 09:40:30;;;;;;;6.33;2.07;;;15.30;99.90;;;;;;8381199;28;20217;-70
2022/10/07 09:44:31;;;;;;;4.07;2.00;;;15.40;99.90;;;;;;8379299;28;20186;-70
2022/10/07 09:48:33;;;;;;;3.93;1.97;;;15.50;99.90;;;;;;8380937;28;20185;-70
2022/10/07 09:52:34;;;;;;;4.53;1.80;;;15.70;99.90;;;;;;8380760;28;20189;-69
2022/10/07 09:56:40;;;;;;;2.80;1.90;;;15.80;99.90;;;;;;8376940;28;20764;-67
2022/10/07 10:00:43;;;;;;;4.07;1.73;;;15.90;99.90;;;;;;8381524;28;20291;-67
2022/10/07 10:04:53;;;;;;;6.30;1.60;;;16.00;99.90;;;;;;8375562;28;20185;-66
2022/10/07 10:08:56;;;;;;;3.50;2.00;;;16.10;99.90;;;;;;8380421;28;20199;-69
2022/10/07 10:12:59;;;;;;;4.03;2.00;;;16.30;99.90;;;;;;8380551;28;20196;-68
2022/10/07 10:17:04;;;;;;;3.40;2.00;;;16.30;99.90;;;;;;8396330;28;20192;-68
2022/10/07 10:21:21;;;;;;;4.10;2.40;;;16.40;99.90;;;;;;8375387;28;20189;-69
2022/10/07 10:30:22;;;;;;;2.57;1.90;;;16.60;99.90;;;;;;8378488;28;20201;-69
2022/10/07 10:34:38;;;;;;;4.20;2.17;;;16.70;99.90;;;;;;8378435;28;20273;-69
2022/10/07 10:39:05;;;;;;;3.77;1.73;;;16.90;99.90;;;;;;8377092;28;20623;-70
2022/10/07 10:43:19;;;;;;;3.07;1.77;;;17.00;99.90;;;;;;8378485;28;20177;-67
2022/10/07 10:47:41;;;;;;;5.63;1.37;;;17.10;99.90;;;;;;8377076;28;20200;-69
2022/10/07 10:51:42;;;;;;;5.30;1.20;;;17.10;46.60;;;;;;8393335;28;20191;-69
2022/10/07 10:56:19;;;;;;;2.93;1.40;;;17.30;43.60;;;;;;8375588;28;20225;-69
2022/10/07 11:00:22;;;;;;;3.27;1.17;;;17.50;47.10;;;;;;8378757;28;20185;-69
2022/10/07 11:04:34;;;;;;;3.30;1.40;;;17.60;18.20;;;;;;8377882;28;20192;-70
2022/10/07 11:08:37;;;;;;;3.10;1.30;;;17.80;8.60;;;;;;8378367;28;20719;-68
2022/10/07 11:12:41;;;;;;;5.47;1.20;;;17.90;15.30;;;;;;8380077;28;20197;-69
2022/10/07 11:16:55;;;;;;;4.40;1.33;;;18.00;17.00;;;;;;8375629;28;20219;-67
2022/10/07 11:20:58;;;;;;;1.53;0.80;;;18.10;7.40;;;;;;8376126;28;20189;-68
2022/10/07 11:25:13;;;;;;;2.63;1.20;;;18.20;14.80;;;;;;8377461;28;20185;-67
2022/10/07 11:29:19;;;;;;;2.33;1.30;;;18.30;20.90;;;;;;8377599;28;20186;-69
2022/10/07 11:33:31;;;;;;;1.67;1.13;;;18.30;16.70;;;;;;8375455;28;20210;-68
2022/10/07 11:37:46;;;;;;;1.77;1.20;;;18.40;10.10;;;;;;8376570;28;20189;-69
2022/10/07 11:41:56;;;;;;;4.03;1.57;;;18.50;5.50;;;;;;8375561;28;20197;-68
2022/10/07 11:46:05;;;;;;;3.70;1.30;;;18.50;1.00;;;;;;8378250;28;20239;-69
2022/10/07 11:50:13;;;;;;;2.07;1.27;;;18.60;8.30;;;;;;8371723;28;20191;-68
2022/10/07 11:54:16;;;;;;;4.60;1.57;;;18.70;11.80;;;;;;8380794;28;20212;-68
2022/10/07 11:58:22;;;;;;;2.33;1.13;;;18.70;9.20;;;;;;8378516;28;20197;-69
2022/10/07 12:02:29;;;;;;;2.70;0.90;;;18.70;10.50;;;;;;8378688;28;20197;-66
2022/10/07 12:06:30;;;;;;;1.73;1.10;;;18.70;13.40;;;;;;8376741;28;20193;-68
2022/10/07 12:10:32;;;;;;;4.40;1.83;;;18.70;13.80;;;;;;8379055;28;20386;-68
2022/10/07 12:14:41;;;;;;;1.63;1.03;;;18.80;24.10;;;;;;8379308;28;20219;-68
2022/10/07 12:19:05;;;;;;;6.40;1.60;;;18.90;24.20;;;;;;8375539;28;20182;-69
2022/10/07 12:23:27;;;;;;;4.03;1.30;;;19.10;25.40;;;;;;8378173;28;20190;-69
2022/10/07 12:27:28;;;;;;;3.87;1.40;;;19.20;15.40;;;;;;8375303;28;20291;-71
2022/10/07 12:31:52;;;;;;;3.63;1.10;;;19.20;29.30;;;;;;8375220;28;20193;-68
2022/10/07 12:35:53;;;;;;;3.43;1.47;;;19.30;16.00;;;;;;8372954;28;20752;-70
2022/10/07 12:39:56;;;;;;;2.97;1.50;;;19.30;27.80;;;;;;8376174;28;20287;-69
2022/10/07 12:44:21;;;;;;;3.30;1.50;;;19.30;9.50;;;;;;8375546;28;20205;-70
2022/10/07 12:48:26;;;;;;;4.17;1.50;;;19.30;3.50;;;;;;8372428;28;20184;-68
2022/10/07 12:52:43;;;;;;;3.40;1.93;;;19.30;10.10;;;;;;8379479;28;20191;-69
2022/10/07 12:56:44;;;;;;;3.03;1.50;;;19.30;12.30;;;;;;8390675;28;20217;-69
2022/10/07 13:01:21;;;;;;;4.30;1.40;;;19.30;22.80;;;;;;8375297;28;20803;-69
2022/10/07 13:05:43;;;;;;;1.83;1.17;;;19.30;15.90;;;;;;8375150;28;20213;-69
2022/10/07 13:10:28;;;;;;;4.00;2.00;;;19.40;22.90;;;;;;8374496;28;20188;-69
2022/10/07 13:15:13;;;;;;;3.47;1.20;;;19.40;28.40;;;;;;8335232;28;20224;-69
2022/10/07 13:19:35;;;;;;;3.67;1.60;;;19.40;23.40;;;;;;8369903;28;20209;-70
2022/10/07 13:23:36;;;;;;;2.83;1.20;;;19.50;20.00;;;;;;8372210;28;20199;-68
2022/10/07 13:27:40;;;;;;;2.80;1.50;;;19.50;24.20;;;;;;8374538;28;20185;-69
2022/10/07 13:31:41;;;;;;;1.67;1.23;;;19.40;18.90;;;;;;8372636;28;20184;-69
2022/10/07 13:35:42;;;;;;;1.67;1.10;;;19.30;18.60;;;;;;8373579;28;20280;-69
2022/10/07 13:39:43;;;;;;;2.03;1.30;;;19.30;18.10;;;;;;8378749;28;20254;-68
2022/10/07 13:43:44;;;;;;;3.33;1.53;;;19.30;12.70;;;;;;8376896;28;20189;-69
2022/10/07 13:47:48;;;;;;;1.90;1.23;;;19.30;14.80;;;;;;8375012;28;20250;-69
2022/10/07 13:51:48;;;;;;;3.73;1.37;;;19.20;8.00;;;;;;8381388;28;20184;-69
2022/10/07 13:55:49;;;;;;;2.93;1.23;;;19.20;5.20;;;;;;8379294;28;20247;-70
2022/10/07 13:59:50;;;;;;;4.00;1.40;;;19.30;3.60;;;;;;8379965;28;20329;-69
2022/10/07 14:04:00;;;;;;;2.77;1.53;;;19.30;8.90;;;;;;8378018;28;20200;-69
2022/10/07 14:08:15;;;;;;;3.93;1.30;;;19.30;14.40;;;;;;8382380;28;20189;-69
2022/10/07 14:12:20;;;;;;;2.10;1.47;;;19.30;14.10;;;;;;8379939;28;20185;-69
2022/10/07 14:16:22;;;;;;;6.20;1.60;;;19.30;17.30;;;;;;8382616;28;20216;-69
2022/10/07 14:20:33;;;;;;;2.20;1.53;;;19.30;19.60;;;;;;8379398;28;20254;-67
2022/10/07 14:24:34;;;;;;;3.67;2.17;;;19.30;21.70;;;;;;8375992;28;20247;-68
2022/10/07 14:28:37;;;;;;;2.87;2.10;;;19.20;29.00;;;;;;8375306;28;20239;-69
2022/10/07 14:37:06;;;;;;;4.50;2.13;;;19.10;56.80;;;;;;8377371;28;20335;-70
2022/10/07 14:41:09;;;;;;;4.37;2.57;;;19.00;78.00;;;;;;8379676;28;20182;-69
2022/10/07 14:45:16;;;;;;;5.60;1.97;;;18.90;87.90;;;;;;8378970;28;20419;-69
2022/10/07 14:49:17;;;;;;;3.87;2.20;;;18.80;97.30;;;;;;8378063;28;20188;-69
2022/10/07 14:53:17;;;;;;;3.37;2.00;;;18.70;99.90;;;;;;8378330;28;20621;-69
2022/10/07 14:57:18;;;;;;;3.27;2.30;;;18.60;99.90;;;;;;8372978;28;20209;-69
2022/10/07 15:01:19;;;;;;;4.60;1.87;;;18.50;99.90;;;;;;8375363;28;20199;-69
2022/10/07 15:05:21;;;;;;;3.47;2.17;;;18.50;99.90;;;;;;8378506;28;20189;-68
2022/10/07 15:09:22;;;;;;;3.10;2.10;;;18.40;99.90;;;;;;8380543;28;20281;-68
2022/10/07 15:13:23;;;;;;;4.00;2.00;;;18.30;99.90;;;;;;8377843;28;20217;-69
2022/10/07 15:17:24;;;;;;;5.27;2.40;;;18.20;99.90;;;;;;8375308;28;20182;-68
2022/10/07 15:21:25;;;;;;;5.07;2.30;;;18.00;99.90;;;;;;8380040;28;20210;-68
2022/10/07 15:25:26;;;;;;;4.47;2.20;;;17.90;99.90;;;;;;8378588;28;20242;-69
2022/10/07 15:29:26;;;;;;;3.00;1.80;;;17.70;99.90;;;;;;8378110;28;20284;-68
2022/10/07 15:33:28;;;;;;;2.87;1.80;;;17.60;99.90;;;;;;8374877;28;20213;-68
2022/10/07 15:37:28;;;;;;;3.47;1.83;;;17.50;99.90;;;;;;8378919;28;20185;-68
2022/10/07 15:41:35;;;;;;;3.00;1.73;;;17.30;99.90;;;;;;8377476;28;20242;-68
2022/10/07 15:45:43;;;;;;;3.73;1.83;;;17.10;99.90;;;;;;8379101;28;20204;-68
2022/10/07 15:49:44;;;;;;;3.50;2.10;;;16.90;99.90;;;;;;8376342;28;20202;-68
2022/10/07 15:53:45;;;;;;;2.83;2.00;;;16.70;99.90;;;;;;8374367;28;20213;-68
2022/10/07 15:57:46;;;;;;;4.00;1.87;;;16.40;1.00;;;;;;8375190;28;20258;-68
2022/10/07 16:01:50;;;;;;;2.93;1.80;;;16.20;1.00;;;;;;8373044;28;20201;-67
2022/10/07 16:05:56;;;;;;;6.27;2.27;;;15.90;1.00;;;;;;8376646;28;20192;-68
2022/10/07 16:09:56;;;;;;;3.00;2.07;;;15.70;99.90;;;;;;8374385;28;20186;-68
2022/10/07 16:13:59;;;;;;;4.87;3.00;;;15.50;99.90;;;;;;8377029;28;20219;-67
2022/10/07 16:18:00;;;;;;;6.07;2.60;;;15.40;99.90;;;;;;8373660;28;20185;-69
2022/10/07 16:22:00;;;;;;;5.90;2.53;;;15.20;99.90;;;;;;8374365;28;20201;-67
2022/10/07 16:26:09;;;;;;;9.00;3.23;;;15.20;1.00;;;;;;8375485;28;20193;-68
2022/10/07 16:34:30;;;;;;;4.70;2.60;;;15.00;1.00;;;;;;8377263;28;20223;-68
2022/10/07 16:38:30;;;;;;;5.17;2.80;;;15.00;55.80;;;;;;8378158;28;20185;-68
2022/10/07 16:42:31;;;;;;;5.70;2.57;;;15.00;99.90;;;;;;8378425;28;20567;-68
2022/10/07 16:46:32;;;;;;;4.33;2.13;;;15.00;99.90;;;;;;8373071;28;20276;-69
2022/10/07 16:50:33;;;;;;;4.60;2.20;;;14.90;99.90;;;;;;8377936;28;20192;-68
2022/10/07 16:54:34;;;;;;;3.80;2.47;;;14.90;99.90;;;;;;8375726;28;20321;-68
2022/10/07 16:58:36;;;;;;;2.57;2.20;;;14.90;1.00;;;;;;8375965;28;20296;-68
2022/10/07 17:02:37;;;;;;;3.30;2.50;;;14.80;1.00;;;;;;8374351;28;20234;-68
2022/10/07 17:06:38;;;;;;;2.67;2.00;;;14.90;1.00;;;;;;8377948;28;20251;-68
2022/10/07 17:10:39;;;;;;;2.67;2.20;;;14.80;1.00;;;;;;8376641;28;20197;-68
2022/10/07 17:14:42;;;;;;;4.10;2.80;;;14.80;1.00;;;;;;8381227;28;20213;-68
2022/10/07 17:18:42;;;;;;;4.20;2.77;;;14.80;6.00;;;;;;8380906;28;20189;-68
2022/10/07 17:22:43;;;;;;;7.80;3.30;;;14.80;1.00;;;;;;8383779;28;20197;-69
2022/10/07 17:26:45;;;;;;;3.87;3.23;;;14.80;1.00;;;;;;8379779;28;20303;-68
2022/10/07 17:30:49;;;;;;;7.13;3.03;;;14.70;1.00;;;;;;8381180;28;20272;-68
2022/10/07 17:34:50;;;;;;;7.30;5.27;;;14.60;1.00;;;;;;8382598;28;20614;-68
2022/10/07 17:38:51;;;;;;;26.10;15.67;;;14.60;1.00;;;;;;8381451;28;20228;-68
2022/10/07 17:42:52;;;;;;;27.53;16.20;;;14.60;1.00;;;;;;8378419;28;20180;-68
2022/10/07 17:46:54;;;;;;;28.77;15.03;;;14.60;1.00;;;;;;8380698;28;20193;-68
2022/10/07 17:51:01;;;;;;;24.40;12.13;;;14.50;1.00;;;;;;8380631;28;20192;-68
2022/10/07 17:55:03;;;;;;;12.93;7.67;;;14.50;1.00;;;;;;8376268;28;20219;-68
2022/10/07 17:59:04;;;;;;;8.20;6.03;;;14.50;1.00;;;;;;8380828;28;20227;-69
2022/10/07 18:03:05;;;;;;;11.07;6.47;;;14.50;1.00;;;;;;8378199;28;20200;-68
2022/10/07 18:07:06;;;;;;;11.33;7.60;;;14.50;3.40;;;;;;8381656;28;20189;-68
2022/10/07 18:11:07;;;;;;;9.83;6.60;;;14.50;99.90;;;;;;8380772;28;20224;-68
2022/10/07 18:15:18;;;;;;;7.37;5.70;;;14.50;99.90;;;;;;8376225;28;20212;-68
2022/10/07 18:19:22;;;;;;;8.83;5.80;;;14.40;99.90;;;;;;8366671;28;20201;-68
2022/10/07 18:23:24;;;;;;;8.30;5.00;;;14.40;99.90;;;;;;8377039;28;20189;-68
2022/10/07 18:27:26;;;;;;;6.70;4.53;;;14.30;99.90;;;;;;8376672;28;20230;-68
2022/10/07 18:31:29;;;;;;;9.00;5.53;;;14.30;99.90;;;;;;8380756;28;20198;-67
2022/10/07 18:35:30;;;;;;;9.90;5.70;;;14.30;1.00;;;;;;8374130;28;20219;-67
2022/10/07 18:39:30;;;;;;;13.33;7.97;;;14.20;99.90;;;;;;8376987;28;20189;-68
2022/10/07 18:43:32;;;;;;;10.13;6.70;;;14.10;99.90;;;;;;8376809;28;20193;-67
2022/10/07 18:47:35;;;;;;;11.40;6.40;;;14.10;1.00;;;;;;8377474;28;20235;-68
2022/10/07 18:51:36;;;;;;;7.73;6.10;;;14.00;99.90;;;;;;8381468;28;20190;-67
2022/10/07 18:55:40;;;;;;;7.63;5.77;;;13.90;99.90;;;;;;8374817;28;20327;-68
2022/10/07 18:59:41;;;;;;;6.60;4.93;;;13.90;99.90;;;;;;8378990;28;20466;-68
2022/10/07 19:03:42;;;;;;;5.40;4.20;;;13.90;1.00;;;;;;8378161;28;20274;-68
2022/10/07 19:07:44;;;;;;;6.23;4.33;;;13.90;1.00;;;;;;8379220;28;20546;-67
2022/10/07 19:11:45;;;;;;;5.90;3.80;;;13.90;99.90;;;;;;8381221;28;20274;-67
2022/10/07 19:15:46;;;;;;;6.10;3.57;;;13.90;99.90;;;;;;8377223;28;20230;-67
2022/10/07 19:19:47;;;;;;;4.97;3.40;;;13.90;99.90;;;;;;8377217;28;20188;-67
2022/10/07 19:23:50;;;;;;;3.37;3.03;;;13.90;99.90;;;;;;8379412;28;20198;-68
2022/10/07 19:27:51;;;;;;;6.03;3.43;;;13.90;37.00;;;;;;8377157;28;20254;-68
2022/10/07 19:31:55;;;;;;;5.63;3.20;;;13.90;99.90;;;;;;8379268;28;20189;-68
2022/10/07 19:35:56;;;;;;;5.00;3.57;;;13.90;11.00;;;;;;8377048;28;20258;-68
2022/10/07 19:39:57;;;;;;;5.67;3.37;;;13.90;99.90;;;;;;8377241;28;20227;-69
2022/10/07 19:43:59;;;;;;;4.47;2.90;;;13.80;99.90;;;;;;8377177;28;20276;-68
2022/10/07 19:48:03;;;;;;;3.10;2.73;;;13.80;99.90;;;;;;8378655;28;20201;-70
2022/10/07 19:52:03;;;;;;;5.23;3.03;;;13.80;1.00;;;;;;8377855;28;20238;-68
2022/10/07 19:56:13;;;;;;;4.40;3.20;;;13.80;1.00;;;;;;8377183;28;20212;-67
2022/10/07 20:00:14;;;;;;;4.33;2.70;;;13.80;99.90;;;;;;8376372;28;20185;-67
2022/10/07 20:04:17;;;;;;;3.50;2.77;;;13.80;99.90;;;;;;8375957;28;20227;-67
2022/10/07 20:08:18;;;;;;;3.23;2.90;;;13.80;1.00;;;;;;8378486;28;20200;-67
2022/10/07 20:12:20;;;;;;;5.53;3.00;;;13.80;11.00;;;;;;8379997;28;20209;-67
2022/10/07 20:16:23;;;;;;;4.00;3.20;;;13.80;99.90;;;;;;8377670;28;20217;-68
2022/10/07 20:20:25;;;;;;;5.27;3.13;;;13.80;93.00;;;;;;8377063;28;20177;-68
2022/10/07 20:24:27;;;;;;;5.07;4.10;;;13.80;99.90;;;;;;8380683;28;20186;-68
2022/10/07 20:28:28;;;;;;;5.47;4.10;;;13.80;99.90;;;;;;8375904;28;20188;-67
2022/10/07 20:32:34;;;;;;;8.00;6.47;;;13.80;55.50;;;;;;8376849;28;20256;-68
2022/10/07 20:36:37;;;;;;;8.77;6.63;;;13.90;1.00;;;;;;8375541;28;20220;-68
2022/10/07 20:44:59;;;;;;;26.27;17.23;;;13.90;99.90;;;;;;8376294;28;20220;-69
2022/10/07 20:48:59;;;;;;;20.33;13.47;;;13.90;1.00;;;;;;8377515;28;20192;-68
2022/10/07 20:53:00;;;;;;;18.40;11.67;;;13.90;99.90;;;;;;8382457;28;20216;-67
2022/10/07 20:57:01;;;;;;;14.47;9.67;;;13.90;99.90;;;;;;8380238;28;20440;-67
2022/10/07 21:01:08;;;;;;;13.37;9.60;;;13.90;97.10;;;;;;8378185;28;20201;-67
2022/10/07 21:05:09;;;;;;;14.53;10.70;;;13.90;53.90;;;;;;8374050;28;20193;-67
2022/10/07 21:09:11;;;;;;;12.73;9.37;;;14.00;99.90;;;;;;8377962;28;20224;-68
2022/10/07 21:13:13;;;;;;;12.07;8.77;;;13.90;1.00;;;;;;8378400;28;20197;-68
2022/10/07 21:17:14;;;;;;;11.30;7.93;;;13.90;1.00;;;;;;8384483;28;20205;-68
2022/10/07 21:21:16;;;;;;;9.73;7.67;;;13.90;1.00;;;;;;8383319;28;20251;-69
2022/10/07 21:25:18;;;;;;;13.23;9.03;;;13.90;99.90;;;;;;8384106;28;20288;-68
2022/10/07 21:29:18;;;;;;;15.97;12.50;;;13.90;99.90;;;;;;8382646;28;20189;-68
2022/10/07 21:33:19;;;;;;;20.03;12.30;;;13.80;94.90;;;;;;8382241;28;20184;-68
2022/10/07 21:37:20;;;;;;;16.23;10.13;;;13.80;99.90;;;;;;8380410;28;20223;-68